New Yoshino — JG5527 — position and weather

sailwx.info

Track history (hours):
 
Tides and Currents Weather Stations Pressure Air Temp Water Temp Dewpoint Dewpoint Depression Visibility Wind Speed Wind Dir Waves Ship Positions

New Yoshino

Last reported at 2017-Mar-26 06:33 UTC. Time now 2017-Mar-26 07:16 UTC.
Position N 35°28' E 139°43'.

Length 102 m; draft 4.7 m.

Type: Tanker. MMSI: 431300724.

Date/timePositionNaut miles runAvg speedWind from/ knotsBaromVisibWave heightAir tempDewpointWater temp
2017-Mar-26 06:33N 35°28' E 139°43'4 3.9
2017-Mar-26 05:32N 35°24' E 139°45'0 0.0
2017-Mar-26 04:32N 35°24' E 139°45'0 0.0
2017-Mar-26 03:32N 35°24' E 139°45'0 0.0
2017-Mar-26 02:29N 35°24' E 139°45'1 0.8
2017-Mar-26 01:33N 35°23' E 139°45'1110.9
2017-Mar-26 00:33N 35°12' E 139°47'5 0.1
2017-Mar-24 16:22N 35°08' E 139°45'1012.1
2017-Mar-24 15:33N 35°18' E 139°44'1110.6
2017-Mar-24 14:33N 35°28' E 139°49'10 1.2
2017-Mar-24 06:33N 35°29' E 140°00'8 8.2
2017-Mar-24 05:33N 35°31' E 139°51'0 0.0
2017-Mar-24 04:33N 35°31' E 139°51'0 0.0
2017-Mar-24 03:33N 35°31' E 139°51'0 0.0
2017-Mar-24 02:33N 35°31' E 139°51'0 0.0
2017-Mar-24 01:32N 35°31' E 139°51'0 0.0
2017-Mar-24 00:32N 35°31' E 139°50'0 0.0
2017-Mar-23 23:33N 35°31' E 139°51'0 0.0
2017-Mar-23 22:33N 35°31' E 139°50'0 0.0
2017-Mar-23 21:32N 35°31' E 139°50'0 0.0
2017-Mar-23 20:32N 35°31' E 139°51'6 6.2
2017-Mar-23 19:33N 35°25' E 139°47'1110.7
2017-Mar-23 18:33N 35°14' E 139°47'  
2017-Mar-20 10:26N 34°56' E 139°43'1112.1
2017-Mar-20 09:33N 35°06' E 139°45'1212.0
2017-Mar-20 08:33N 35°18' E 139°44'1010.3
2017-Mar-20 07:33N 35°28' E 139°48'10 9.7
2017-Mar-20 06:31N 35°29' E 140°01'0 0.0
2017-Mar-19 23:32N 35°29' E 140°01'2 2.1
2017-Mar-19 22:33N 35°30' E 139°58'0 0.0
2017-Mar-19 21:30N 35°30' E 139°58'0 0.0
2017-Mar-19 20:30N 35°30' E 139°58'0 0.0
2017-Mar-19 19:30N 35°30' E 139°58'0 0.0
2017-Mar-19 18:33N 35°30' E 139°58'0 0.1
2017-Mar-19 17:33N 35°30' E 139°58'0 0.0
2017-Mar-19 16:33N 35°30' E 139°58'0 0.0
2017-Mar-19 15:33N 35°30' E 139°58'0 0.0
2017-Mar-19 14:33N 35°30' E 139°58'0 0.0
2017-Mar-19 13:30N 35°30' E 139°58'0 0.0
2017-Mar-19 12:33N 35°30' E 139°58'1010.0
2017-Mar-19 11:33N 35°25' E 139°47'1111.4
2017-Mar-19 10:33N 35°14' E 139°47'1413.9
2017-Mar-19 09:34N 35°00' E 139°43'  
Track history (hours):
 
Tides and Currents Weather Stations Pressure Air Temp Water Temp Dewpoint Dewpoint Depression Visibility Wind Speed Wind Dir Waves Ship Positions

New Yoshino

Last reported at 2017-Mar-26 06:33 UTC. Time now 2017-Mar-26 07:16 UTC.
Position N 35°28' E 139°43'.

Length 102 m; draft 4.7 m.

Type: Tanker. MMSI: 431300724.

Date/timePositionNaut miles runAvg speedWind from/ knotsBaromVisibWave heightAir tempDewpointWater temp
2017-Mar-26 06:33N 35°28' E 139°43'4 3.9
2017-Mar-26 05:32N 35°24' E 139°45'0 0.0
2017-Mar-26 04:32N 35°24' E 139°45'0 0.0
2017-Mar-26 03:32N 35°24' E 139°45'0 0.0
2017-Mar-26 02:29N 35°24' E 139°45'1 0.8
2017-Mar-26 01:33N 35°23' E 139°45'1110.9
2017-Mar-26 00:33N 35°12' E 139°47'5 0.1
2017-Mar-24 16:22N 35°08' E 139°45'1012.1
2017-Mar-24 15:33N 35°18' E 139°44'1110.6
2017-Mar-24 14:33N 35°28' E 139°49'10 1.2
2017-Mar-24 06:33N 35°29' E 140°00'8 8.2
2017-Mar-24 05:33N 35°31' E 139°51'0 0.0
2017-Mar-24 04:33N 35°31' E 139°51'0 0.0
2017-Mar-24 03:33N 35°31' E 139°51'0 0.0
2017-Mar-24 02:33N 35°31' E 139°51'0 0.0
2017-Mar-24 01:32N 35°31' E 139°51'0 0.0
2017-Mar-24 00:32N 35°31' E 139°50'0 0.0
2017-Mar-23 23:33N 35°31' E 139°51'0 0.0
2017-Mar-23 22:33N 35°31' E 139°50'0 0.0
2017-Mar-23 21:32N 35°31' E 139°50'0 0.0
2017-Mar-23 20:32N 35°31' E 139°51'6 6.2
2017-Mar-23 19:33N 35°25' E 139°47'1110.7
2017-Mar-23 18:33N 35°14' E 139°47'  
2017-Mar-20 10:26N 34°56' E 139°43'1112.1
2017-Mar-20 09:33N 35°06' E 139°45'1212.0
2017-Mar-20 08:33N 35°18' E 139°44'1010.3
2017-Mar-20 07:33N 35°28' E 139°48'10 9.7
2017-Mar-20 06:31N 35°29' E 140°01'0 0.0
2017-Mar-19 23:32N 35°29' E 140°01'2 2.1
2017-Mar-19 22:33N 35°30' E 139°58'0 0.0
2017-Mar-19 21:30N 35°30' E 139°58'0 0.0
2017-Mar-19 20:30N 35°30' E 139°58'0 0.0
2017-Mar-19 19:30N 35°30' E 139°58'0 0.0
2017-Mar-19 18:33N 35°30' E 139°58'0 0.1
2017-Mar-19 17:33N 35°30' E 139°58'0 0.0
2017-Mar-19 16:33N 35°30' E 139°58'0 0.0
2017-Mar-19 15:33N 35°30' E 139°58'0 0.0
2017-Mar-19 14:33N 35°30' E 139°58'0 0.0
2017-Mar-19 13:30N 35°30' E 139°58'0 0.0
2017-Mar-19 12:33N 35°30' E 139°58'1010.0
2017-Mar-19 11:33N 35°25' E 139°47'1111.4
2017-Mar-19 10:33N 35°14' E 139°47'1413.9
2017-Mar-19 09:34N 35°00' E 139°43'  

Dump ship's entire track history